createdAt,value
2023-05-06T00:00:14.970Z,12.719999
2023-05-06T00:01:15.095Z,12.639999
2023-05-06T00:02:15.241Z,12.639999
2023-05-06T00:03:15.355Z,12.48
2023-05-06T00:04:15.459Z,12.639999
2023-05-06T00:05:15.531Z,12.639999
2023-05-06T00:06:15.639Z,12.639999
2023-05-06T00:07:15.737Z,12.639999
2023-05-06T00:08:15.886Z,12.639999
2023-05-06T00:09:16.040Z,12.639999
2023-05-06T00:10:16.141Z,12.719999
2023-05-06T00:11:16.240Z,12.719999
2023-05-06T00:12:16.354Z,12.639999
2023-05-06T00:13:16.577Z,12.48
2023-05-06T00:14:16.594Z,12.48
2023-05-06T00:15:16.709Z,12.48
2023-05-06T00:16:16.865Z,12.639999
2023-05-06T00:17:16.994Z,12.48
2023-05-06T00:18:17.124Z,12.719999
2023-05-06T00:19:17.272Z,12.88
2023-05-06T00:20:17.408Z,12.88
2023-05-06T00:21:17.516Z,12.799999
2023-05-06T00:22:17.672Z,12.639999
2023-05-06T00:23:17.813Z,12.639999
2023-05-06T00:24:17.950Z,12.48
2023-05-06T00:25:18.066Z,12.639999
2023-05-06T00:26:18.170Z,12.639999
2023-05-06T00:27:18.269Z,12.48
2023-05-06T00:28:18.381Z,12.639999
2023-05-06T00:29:18.527Z,12.48
2023-05-06T00:30:18.676Z,12.48
2023-05-06T00:31:18.845Z,12.4
2023-05-06T00:32:18.928Z,12.48
2023-05-06T00:33:19.076Z,12.48
2023-05-06T00:34:19.179Z,12.48
2023-05-06T00:35:19.293Z,12.639999
2023-05-06T00:36:19.381Z,12.48
2023-05-06T00:37:19.533Z,12.639999
2023-05-06T00:38:19.670Z,12.639999
2023-05-06T00:39:19.779Z,12.48
2023-05-06T00:40:19.888Z,12.639999
2023-05-06T00:41:19.991Z,12.48
2023-05-06T00:42:20.092Z,12.48
2023-05-06T00:43:20.193Z,12.639999
2023-05-06T00:44:20.303Z,12.48
2023-05-06T00:45:20.471Z,12.48
2023-05-06T00:46:20.621Z,12.639999
2023-05-06T00:47:20.704Z,12.719999
2023-05-06T00:48:20.805Z,12.719999
2023-05-06T00:49:20.912Z,12.639999
2023-05-06T00:50:21.057Z,12.639999
2023-05-06T00:51:21.210Z,12.639999
2023-05-06T00:52:21.316Z,12.639999
2023-05-06T00:53:21.458Z,12.719999
2023-05-06T00:54:21.567Z,12.719999
2023-05-06T00:55:21.664Z,12.799999
2023-05-06T00:56:21.812Z,12.719999
2023-05-06T00:57:21.919Z,12.88
2023-05-06T00:58:22.038Z,13.04
2023-05-06T00:59:22.176Z,12.88
2023-05-06T01:00:22.275Z,12.799999
2023-05-06T01:01:22.397Z,12.719999
2023-05-06T01:02:23.494Z,12.799999
2023-05-06T01:03:22.789Z,12.719999
2023-05-06T01:04:22.752Z,12.719999
2023-05-06T01:05:22.985Z,12.719999
2023-05-06T01:06:22.985Z,12.639999
2023-05-06T01:07:23.144Z,12.639999
2023-05-06T01:08:23.242Z,12.48
2023-05-06T01:09:23.358Z,12.48
2023-05-06T01:10:23.448Z,12.48
2023-05-06T01:11:23.593Z,12.639999
2023-05-06T01:12:23.748Z,12.639999
2023-05-06T01:13:23.856Z,12.799999
2023-05-06T01:14:23.948Z,12.799999
2023-05-06T01:15:24.101Z,12.88
2023-05-06T01:16:24.285Z,12.88
2023-05-06T01:17:24.376Z,12.88
2023-05-06T01:18:24.508Z,12.88
2023-05-06T01:19:24.618Z,13.04
2023-05-06T01:20:24.768Z,12.88
2023-05-06T01:21:24.880Z,12.88
2023-05-06T01:22:25.016Z,12.799999
2023-05-06T01:23:25.171Z,12.639999
2023-05-06T01:24:25.324Z,12.639999
2023-05-06T01:25:25.469Z,12.48
2023-05-06T01:26:25.569Z,12.48
2023-05-06T01:27:25.676Z,12.639999
2023-05-06T01:28:25.779Z,12.48
2023-05-06T01:29:25.885Z,12.48
2023-05-06T01:30:26.029Z,12.48
2023-05-06T01:31:26.156Z,12.48
2023-05-06T01:32:26.246Z,12.639999
2023-05-06T01:33:26.337Z,12.719999
2023-05-06T01:34:26.484Z,12.799999
2023-05-06T01:35:26.588Z,12.719999
2023-05-06T01:36:26.688Z,12.639999
2023-05-06T01:37:26.838Z,12.639999
2023-05-06T01:38:26.963Z,12.48
2023-05-06T01:39:27.101Z,12.4
2023-05-06T01:40:27.198Z,12.48
2023-05-06T01:41:27.296Z,12.48
2023-05-06T01:42:27.457Z,12.48
2023-05-06T01:43:27.558Z,12.48
2023-05-06T01:44:27.692Z,12.639999
2023-05-06T01:45:27.796Z,12.799999
2023-05-06T01:46:27.945Z,12.719999
2023-05-06T01:47:28.026Z,12.719999
2023-05-06T01:48:28.411Z,12.639999
2023-05-06T01:49:28.316Z,12.48
2023-05-06T01:50:28.467Z,12.4
2023-05-06T01:51:28.614Z,12.4
2023-05-06T01:52:28.789Z,12.4
2023-05-06T01:53:28.870Z,12.4
2023-05-06T01:54:28.967Z,12.4
2023-05-06T01:55:29.075Z,12.4
2023-05-06T01:56:29.177Z,12.32
2023-05-06T01:57:29.284Z,12.32
2023-05-06T01:58:29.391Z,12.4
2023-05-06T01:59:29.706Z,12.4
2023-05-06T02:00:29.684Z,12.4
2023-05-06T02:01:29.820Z,12.32
2023-05-06T02:02:29.962Z,12.32
2023-05-06T02:03:30.050Z,12.32
2023-05-06T02:04:30.089Z,12.4
2023-05-06T02:05:30.248Z,12.4
2023-05-06T02:06:30.343Z,12.24
2023-05-06T02:07:30.495Z,12.32
2023-05-06T02:08:30.605Z,12.24
2023-05-06T02:09:30.697Z,12.24
2023-05-06T02:10:30.810Z,12.24
2023-05-06T02:11:30.901Z,12.24
2023-05-06T02:12:31.049Z,12.24
2023-05-06T02:13:31.204Z,12.08
2023-05-06T02:14:31.315Z,12.08
2023-05-06T02:15:31.475Z,12.24
2023-05-06T02:16:31.673Z,12.08
2023-05-06T02:17:31.721Z,12.24
2023-05-06T02:18:31.809Z,12.08
2023-05-06T02:19:31.915Z,12.24
2023-05-06T02:20:32.066Z,12.24
2023-05-06T02:21:32.220Z,12.24
2023-05-06T02:22:32.318Z,12.4
2023-05-06T02:23:32.481Z,12.24
2023-05-06T02:24:32.576Z,12.08
2023-05-06T02:25:32.679Z,12
2023-05-06T02:26:32.826Z,12.08
2023-05-06T02:27:32.942Z,12
2023-05-06T02:28:33.077Z,11.92
2023-05-06T02:29:33.212Z,12
2023-05-06T02:30:33.335Z,12
2023-05-06T02:31:33.472Z,12
2023-05-06T02:32:33.560Z,11.92
2023-05-06T02:33:33.632Z,11.92
2023-05-06T02:34:33.737Z,11.679999
2023-05-06T02:35:33.885Z,11.599999
2023-05-06T02:36:33.994Z,11.599999
2023-05-06T02:37:34.111Z,11.84
2023-05-06T02:38:34.202Z,11.84
2023-05-06T02:39:34.296Z,11.84
2023-05-06T02:40:34.406Z,11.92
2023-05-06T02:41:34.496Z,11.679999
2023-05-06T02:42:34.645Z,11.84
2023-05-06T02:43:34.766Z,11.679999
2023-05-06T02:44:34.907Z,11.679999
2023-05-06T02:45:35.027Z,11.679999
2023-05-06T02:46:35.128Z,11.679999
2023-05-06T02:47:35.241Z,11.52
2023-05-06T02:48:35.313Z,11.44
2023-05-06T02:49:35.460Z,11.52
2023-05-06T02:50:35.619Z,11.599999
2023-05-06T02:51:35.716Z,11.679999
2023-05-06T02:52:35.870Z,11.84
2023-05-06T02:53:35.969Z,11.84
2023-05-06T02:54:36.069Z,11.679999
2023-05-06T02:55:36.169Z,11.52
2023-05-06T02:56:36.271Z,11.52
2023-05-06T02:57:36.382Z,11.52
2023-05-06T02:58:36.524Z,11.52
2023-05-06T02:59:36.678Z,11.52
2023-05-06T03:00:36.836Z,11.44
2023-05-06T03:01:37.097Z,11.679999
2023-05-06T03:02:37.087Z,11.679999
2023-05-06T03:03:37.231Z,11.679999
2023-05-06T03:04:37.318Z,11.52
2023-05-06T03:05:37.449Z,11.52
2023-05-06T03:06:37.596Z,11.28
2023-05-06T03:07:37.697Z,11.2
2023-05-06T03:08:37.792Z,11.2
2023-05-06T03:09:37.949Z,11.12
2023-05-06T03:10:38.047Z,11.2
2023-05-06T03:11:38.204Z,11.52
2023-05-06T03:12:38.377Z,11.52
2023-05-06T03:13:38.460Z,11.28
2023-05-06T03:14:38.604Z,11.679999
2023-05-06T03:15:38.705Z,11.679999
2023-05-06T03:16:38.839Z,11.52
2023-05-06T03:17:38.948Z,11.44
2023-05-06T03:18:39.014Z,11.2
2023-05-06T03:19:39.165Z,11.2
2023-05-06T03:20:39.266Z,10.88
2023-05-06T03:21:39.379Z,11.44
2023-05-06T03:22:39.497Z,11.44
2023-05-06T03:23:39.583Z,11.12
2023-05-06T03:24:39.725Z,11.44
2023-05-06T03:25:39.824Z,11.28
2023-05-06T03:26:39.984Z,11.2
2023-05-06T03:27:40.077Z,11.52
2023-05-06T03:28:40.186Z,11.2
2023-05-06T03:29:40.330Z,11.28
2023-05-06T03:30:40.433Z,11.12
2023-05-06T03:31:40.563Z,11.2
2023-05-06T03:32:40.650Z,11.2
2023-05-06T03:33:40.788Z,11.28
2023-05-06T03:34:40.890Z,11.52
2023-05-06T03:35:40.998Z,11.28
2023-05-06T03:36:41.092Z,11.2
2023-05-06T03:37:41.241Z,11.28
2023-05-06T03:38:41.352Z,11.28
2023-05-06T03:39:41.446Z,11.28
2023-05-06T03:40:41.567Z,11.28
2023-05-06T03:41:41.654Z,11.44
2023-05-06T03:42:41.801Z,11.44
2023-05-06T03:43:41.904Z,11.52
2023-05-06T03:44:42.002Z,11.28
2023-05-06T03:45:42.155Z,11.52
2023-05-06T03:46:42.282Z,11.52
2023-05-06T03:47:42.363Z,11.52
2023-05-06T03:48:42.514Z,11.44
2023-05-06T03:49:42.660Z,11.52
2023-05-06T03:50:42.794Z,11.52
2023-05-06T03:51:42.872Z,11.679999
2023-05-06T03:52:43.026Z,11.52
2023-05-06T03:53:43.189Z,11.44
2023-05-06T03:54:43.318Z,11.28
2023-05-06T03:55:43.460Z,11.44
2023-05-06T03:56:43.527Z,11.44
2023-05-06T03:57:43.637Z,11.44
2023-05-06T03:58:43.777Z,11.52
2023-05-06T03:59:43.882Z,11.599999
2023-05-06T04:00:43.981Z,11.599999
2023-05-06T04:01:44.092Z,11.599999
2023-05-06T04:02:44.255Z,11.679999
2023-05-06T04:03:44.400Z,11.84
2023-05-06T04:04:44.547Z,11.84
2023-05-06T04:05:44.686Z,11.84
2023-05-06T04:06:44.792Z,11.84
2023-05-06T04:07:44.944Z,11.84
2023-05-06T04:08:45.097Z,11.84
2023-05-06T04:09:45.192Z,11.84
2023-05-06T04:10:45.352Z,11.84
2023-05-06T04:11:45.456Z,11.84
2023-05-06T04:12:45.605Z,11.92
2023-05-06T04:13:45.759Z,11.84
2023-05-06T04:14:45.856Z,11.84
2023-05-06T04:15:46.002Z,12
2023-05-06T04:16:46.130Z,11.92
2023-05-06T04:17:46.236Z,12.08
2023-05-06T04:18:46.357Z,12
2023-05-06T04:19:46.512Z,12
2023-05-06T04:20:46.662Z,12.08
2023-05-06T04:21:46.819Z,12
2023-05-06T04:22:46.966Z,12
2023-05-06T04:23:47.117Z,12
2023-05-06T04:24:47.222Z,12.24
2023-05-06T04:25:47.373Z,12.08
2023-05-06T04:26:47.477Z,12.24
2023-05-06T04:27:47.575Z,12.08
2023-05-06T04:28:47.733Z,12.24
2023-05-06T04:29:47.836Z,12.08
2023-05-06T04:30:47.978Z,12.24
2023-05-06T04:31:48.177Z,12.24
2023-05-06T04:32:48.254Z,12.24
2023-05-06T04:33:48.339Z,12.24
2023-05-06T04:34:48.439Z,12.24
2023-05-06T04:35:48.545Z,12.24
2023-05-06T04:36:48.703Z,12.24
2023-05-06T04:37:48.848Z,12.08
2023-05-06T04:38:48.949Z,12.24
2023-05-06T04:39:49.073Z,12.24
2023-05-06T04:40:49.153Z,12.32
2023-05-06T04:41:49.257Z,12.24
2023-05-06T04:42:49.408Z,12.24
2023-05-06T04:43:49.508Z,12.24
2023-05-06T04:44:49.663Z,12.32
2023-05-06T04:45:49.970Z,12.24
2023-05-06T04:46:49.872Z,12.24
2023-05-06T04:47:50.063Z,12.24
2023-05-06T04:48:50.113Z,12.24
2023-05-06T04:49:50.269Z,12.24
2023-05-06T04:50:50.435Z,12.24
2023-05-06T04:51:50.521Z,12.24
2023-05-06T04:52:50.681Z,12.32
2023-05-06T04:53:50.838Z,12.32
2023-05-06T04:54:50.976Z,12.4
2023-05-06T04:55:51.079Z,12.48
2023-05-06T04:56:51.226Z,12.48
2023-05-06T04:57:51.331Z,12.4
2023-05-06T04:58:51.434Z,12.4
2023-05-06T04:59:51.583Z,12.4
2023-05-06T05:00:51.695Z,12.4
2023-05-06T05:01:51.881Z,12.4
2023-05-06T05:02:51.991Z,12.32
2023-05-06T05:03:52.089Z,12.4
2023-05-06T05:04:52.196Z,12.4
2023-05-06T05:05:52.295Z,12.48
2023-05-06T05:06:52.448Z,12.639999
2023-05-06T05:07:52.560Z,12.639999
2023-05-06T05:08:53.829Z,12.799999
2023-05-06T05:09:52.817Z,12.88
2023-05-06T05:10:52.911Z,13.28
2023-05-06T05:11:53.015Z,13.679999
2023-05-06T05:12:53.167Z,13.52
2023-05-06T05:13:54.308Z,13.2
2023-05-06T05:14:53.460Z,13.04
2023-05-06T05:15:53.611Z,13.12
2023-05-06T05:16:53.818Z,13.12
2023-05-06T05:17:53.842Z,12.88
2023-05-06T05:18:53.915Z,12.799999
2023-05-06T05:19:54.071Z,12.88
2023-05-06T05:20:54.173Z,12.799999
2023-05-06T05:21:54.327Z,13.04
2023-05-06T05:22:54.473Z,13.2
2023-05-06T05:23:54.577Z,13.12
2023-05-06T05:24:54.728Z,13.12
2023-05-06T05:25:54.829Z,12.88
2023-05-06T05:26:54.935Z,13.12
2023-05-06T05:27:55.031Z,13.12
2023-05-06T05:28:55.193Z,13.2
2023-05-06T05:29:55.344Z,13.2
2023-05-06T05:30:55.452Z,14
2023-05-06T05:31:55.541Z,14.48
2023-05-06T05:32:55.755Z,15.04
2023-05-06T05:33:55.770Z,15.04
2023-05-06T05:34:55.897Z,15.44
2023-05-06T05:35:56.006Z,14.639999
2023-05-06T05:36:56.097Z,15.2
2023-05-06T05:37:56.200Z,15.04
2023-05-06T05:38:56.299Z,14.639999
2023-05-06T05:39:56.456Z,14.639999
2023-05-06T05:40:56.555Z,14.799999
2023-05-06T05:41:56.654Z,14.719999
2023-05-06T05:42:56.813Z,14.88
2023-05-06T05:43:56.910Z,15.28
2023-05-06T05:44:57.060Z,15.839999
2023-05-06T05:45:57.236Z,16.08
2023-05-06T05:46:57.378Z,15.599999
2023-05-06T05:47:57.538Z,15.2
2023-05-06T05:48:57.569Z,15.2
2023-05-06T05:49:57.738Z,15.28
2023-05-06T05:50:57.875Z,15.04
2023-05-06T05:51:57.977Z,14.88
2023-05-06T05:52:58.082Z,14.639999
2023-05-06T05:53:58.227Z,14.32
2023-05-06T05:54:58.325Z,14.48
2023-05-06T05:55:58.428Z,14.639999
2023-05-06T05:56:58.584Z,14.48
2023-05-06T05:57:58.686Z,14.32
2023-05-06T05:58:58.849Z,14.24
2023-05-06T05:59:58.982Z,14.48
2023-05-06T06:00:59.135Z,14.08
2023-05-06T06:01:59.241Z,13.92
2023-05-06T06:02:59.550Z,13.92
2023-05-06T06:03:59.675Z,13.599999
2023-05-06T06:04:59.750Z,13.92
2023-05-06T06:05:59.803Z,14.08
2023-05-06T06:06:59.905Z,14.08
2023-05-06T06:08:01.130Z,14.32
2023-05-06T06:09:00.122Z,14.4
2023-05-06T06:10:00.257Z,14.639999
2023-05-06T06:11:00.357Z,14.88
2023-05-06T06:12:00.466Z,14.88
2023-05-06T06:13:00.616Z,15.12
2023-05-06T06:14:00.659Z,15.44
2023-05-06T06:15:00.765Z,15.92
2023-05-06T06:16:00.956Z,15.92
2023-05-06T06:17:01.016Z,15.28
2023-05-06T06:18:01.191Z,15.52
2023-05-06T06:19:01.229Z,15.52
2023-05-06T06:20:01.331Z,15.28
2023-05-06T06:21:01.420Z,14.88
2023-05-06T06:22:01.570Z,14.799999
2023-05-06T06:23:01.671Z,15.12
2023-05-06T06:24:01.825Z,14.719999
2023-05-06T06:25:01.930Z,14.639999
2023-05-06T06:26:02.023Z,14.32
2023-05-06T06:27:02.181Z,14.48
2023-05-06T06:28:02.299Z,14.4
2023-05-06T06:29:02.434Z,14.32
2023-05-06T06:30:02.547Z,13.92
2023-05-06T06:31:02.636Z,13.92
2023-05-06T06:32:02.849Z,13.92
2023-05-06T06:33:02.972Z,13.599999
2023-05-06T06:34:02.996Z,13.84
2023-05-06T06:35:03.102Z,13.84
2023-05-06T06:36:03.245Z,13.679999
2023-05-06T06:37:03.351Z,13.84
2023-05-06T06:38:03.456Z,13.679999
2023-05-06T06:39:03.597Z,13.679999
2023-05-06T06:40:03.703Z,13.92
2023-05-06T06:41:03.827Z,13.44
2023-05-06T06:42:03.964Z,13.52
2023-05-06T06:43:04.062Z,13.52
2023-05-06T06:44:04.216Z,13.679999
2023-05-06T06:45:04.325Z,13.84
2023-05-06T06:46:04.540Z,14
2023-05-06T06:47:04.653Z,14.08
2023-05-06T06:48:04.809Z,14
2023-05-06T06:49:04.824Z,14
2023-05-06T06:50:04.932Z,14.08
2023-05-06T06:51:05.023Z,13.92
2023-05-06T06:52:05.121Z,14.24
2023-05-06T06:53:06.435Z,14.32
2023-05-06T06:54:05.334Z,14.08
2023-05-06T06:55:05.491Z,13.92
2023-05-06T06:56:05.577Z,14
2023-05-06T06:57:05.732Z,13.92
2023-05-06T06:58:05.841Z,13.679999
2023-05-06T06:59:05.947Z,13.599999
2023-05-06T07:00:06.087Z,13.52
2023-05-06T07:01:06.243Z,13.44
2023-05-06T07:02:06.323Z,13.28
2023-05-06T07:03:06.442Z,13.44
2023-05-06T07:04:07.280Z,13.44
2023-05-06T07:05:06.600Z,13.599999
2023-05-06T07:06:06.701Z,13.52
2023-05-06T07:07:06.796Z,13.52
2023-05-06T07:08:06.901Z,13.599999
2023-05-06T07:09:07.054Z,13.599999
2023-05-06T07:10:07.164Z,13.599999
2023-05-06T07:11:07.266Z,13.599999
2023-05-06T07:12:07.356Z,13.84
2023-05-06T07:13:07.532Z,13.599999
2023-05-06T07:14:07.612Z,13.52
2023-05-06T07:15:07.828Z,13.52
2023-05-06T07:16:07.866Z,13.679999
2023-05-06T07:17:08.003Z,14
2023-05-06T07:18:08.120Z,14
2023-05-06T07:19:08.220Z,13.92
2023-05-06T07:20:08.376Z,13.679999
2023-05-06T07:21:08.493Z,13.84
2023-05-06T07:22:08.625Z,13.599999
2023-05-06T07:23:08.774Z,13.52
2023-05-06T07:24:08.876Z,13.599999
2023-05-06T07:25:09.155Z,13.599999
2023-05-06T07:26:09.132Z,13.599999
2023-05-06T07:27:09.281Z,13.84
2023-05-06T07:28:09.380Z,13.92
2023-05-06T07:29:09.487Z,13.84
2023-05-06T07:30:09.587Z,13.84
2023-05-06T07:31:09.720Z,13.92
2023-05-06T07:32:09.794Z,14.24
2023-05-06T07:33:09.890Z,14.24
2023-05-06T07:34:10.046Z,14.08
2023-05-06T07:35:10.374Z,14
2023-05-06T07:36:10.297Z,13.92
2023-05-06T07:37:10.409Z,13.679999
2023-05-06T07:38:10.506Z,13.84
2023-05-06T07:39:10.653Z,13.679999
2023-05-06T07:40:10.756Z,14.08
2023-05-06T07:41:10.859Z,14
2023-05-06T07:42:11.006Z,14.08
2023-05-06T07:43:11.108Z,13.92
2023-05-06T07:44:11.262Z,13.679999
2023-05-06T07:45:11.623Z,14
2023-05-06T07:46:11.495Z,13.92
2023-05-06T07:47:11.655Z,14.32
2023-05-06T07:48:11.762Z,14.639999
2023-05-06T07:49:11.820Z,14.32
2023-05-06T07:50:11.981Z,14.32
2023-05-06T07:51:12.080Z,14.48
2023-05-06T07:52:12.177Z,14.639999
2023-05-06T07:53:12.280Z,14.639999
2023-05-06T07:54:12.379Z,14.639999
2023-05-06T07:55:12.668Z,14.4
2023-05-06T07:56:12.582Z,14.48
2023-05-06T07:57:12.683Z,14.32
2023-05-06T07:58:12.838Z,14.48
2023-05-06T07:59:12.940Z,14.32
2023-05-06T08:00:13.046Z,14.32
2023-05-06T08:01:13.191Z,14.08
2023-05-06T08:02:13.363Z,13.92
2023-05-06T08:03:13.544Z,14.08
2023-05-06T08:04:13.726Z,14.24
2023-05-06T08:05:13.673Z,14
2023-05-06T08:06:13.753Z,13.679999
2023-05-06T08:07:13.897Z,14
2023-05-06T08:08:14.017Z,14
2023-05-06T08:09:22.201Z,14.24
2023-05-06T08:10:14.255Z,14.08
2023-05-06T08:11:14.370Z,14
2023-05-06T08:12:14.514Z,14.08
2023-05-06T08:13:14.690Z,14.08
2023-05-06T08:14:14.762Z,14
2023-05-06T08:15:14.917Z,13.92
2023-05-06T08:16:15.110Z,13.599999
2023-05-06T08:17:15.181Z,13.52
2023-05-06T08:18:22.143Z,13.28
2023-05-06T08:19:15.432Z,13.28
2023-05-06T08:20:15.528Z,13.2
2023-05-06T08:21:15.636Z,13.04
2023-05-06T08:22:15.785Z,13.12
2023-05-06T08:23:15.885Z,13.2
2023-05-06T08:24:16.034Z,13.12
2023-05-06T08:25:16.197Z,13.04
2023-05-06T08:26:16.285Z,13.04
2023-05-06T08:27:16.384Z,13.12
2023-05-06T08:28:16.494Z,13.04
2023-05-06T08:29:16.599Z,13.2
2023-05-06T08:30:16.696Z,13.28
2023-05-06T08:31:16.811Z,13.12
2023-05-06T08:32:16.901Z,13.04
2023-05-06T08:33:17.069Z,12.88
2023-05-06T08:34:17.153Z,13.04
2023-05-06T08:35:17.261Z,12.88
2023-05-06T08:36:17.354Z,12.639999
2023-05-06T08:37:17.456Z,12.719999
2023-05-06T08:38:17.557Z,12.719999
2023-05-06T08:39:17.660Z,12.639999
2023-05-06T08:40:17.812Z,12.719999
2023-05-06T08:41:17.920Z,12.88
2023-05-06T08:42:18.011Z,12.88
2023-05-06T08:43:18.115Z,12.88
2023-05-06T08:44:18.215Z,13.04
2023-05-06T08:45:18.373Z,13.2
2023-05-06T08:46:18.649Z,13.2
2023-05-06T08:47:18.672Z,13.44
2023-05-06T08:48:18.830Z,13.92
2023-05-06T08:49:18.974Z,14.719999
2023-05-06T08:50:19.078Z,15.28
2023-05-06T08:51:19.179Z,15.839999
2023-05-06T08:52:19.289Z,16.32
2023-05-06T08:53:19.385Z,16.72
2023-05-06T08:54:19.484Z,17.68
2023-05-06T08:55:19.590Z,19.12
2023-05-06T08:56:19.737Z,18.32
2023-05-06T08:57:19.845Z,17.92
2023-05-06T08:58:20.017Z,17.92
2023-05-06T08:59:20.096Z,17.92
2023-05-06T09:00:20.279Z,17.28
2023-05-06T09:01:20.373Z,16.88
2023-05-06T09:02:20.542Z,16.72
2023-05-06T09:03:20.698Z,16.24
2023-05-06T09:04:20.703Z,15.679999
2023-05-06T09:05:20.856Z,15.679999
2023-05-06T09:06:21.007Z,15.599999
2023-05-06T09:07:21.162Z,15.839999
2023-05-06T09:08:21.265Z,15.52
2023-05-06T09:09:21.408Z,15.44
2023-05-06T09:10:21.560Z,15.44
2023-05-06T09:11:21.663Z,15.44
2023-05-06T09:12:21.778Z,15.839999
2023-05-06T09:13:21.904Z,15.599999
2023-05-06T09:14:22.017Z,15.599999
2023-05-06T09:15:22.125Z,15.28
2023-05-06T09:16:22.223Z,15.12
2023-05-06T09:17:22.332Z,15.04
2023-05-06T09:18:22.480Z,15.44
2023-05-06T09:19:22.637Z,15.2
2023-05-06T09:20:22.734Z,15.2
2023-05-06T09:21:22.830Z,15.04
2023-05-06T09:22:22.936Z,14.799999
2023-05-06T09:23:23.038Z,14.639999
2023-05-06T09:24:23.147Z,14.719999
2023-05-06T09:25:23.286Z,14.719999
2023-05-06T09:26:23.395Z,14.799999
2023-05-06T09:27:23.487Z,14.88
2023-05-06T09:28:23.597Z,14.88
2023-05-06T09:29:23.706Z,15.04
2023-05-06T09:30:23.855Z,15.2
2023-05-06T09:31:23.980Z,15.2
2023-05-06T09:32:24.122Z,15.2
2023-05-06T09:33:24.163Z,15.2
2023-05-06T09:34:24.267Z,15.28
2023-05-06T09:35:24.353Z,16
2023-05-06T09:36:24.526Z,16.24
2023-05-06T09:37:24.610Z,16.72
2023-05-06T09:38:24.716Z,16.88
2023-05-06T09:39:24.813Z,17.12
2023-05-06T09:40:24.917Z,17.76
2023-05-06T09:41:25.015Z,18.64
2023-05-06T09:42:25.119Z,18.8
2023-05-06T09:43:25.226Z,19.12
2023-05-06T09:44:25.325Z,19.2
2023-05-06T09:45:25.432Z,19.92
2023-05-06T09:46:25.579Z,21.52
2023-05-06T09:47:25.718Z,20.8
2023-05-06T09:48:25.780Z,20.24
2023-05-06T09:49:25.880Z,20.8
2023-05-06T09:50:25.981Z,21.68
2023-05-06T09:51:26.086Z,22.08
2023-05-06T09:52:26.188Z,22.24
2023-05-06T09:53:26.339Z,21.68
2023-05-06T09:54:26.452Z,21.44
2023-05-06T09:55:26.737Z,21.6
2023-05-06T09:56:26.653Z,21.84
2023-05-06T09:57:26.810Z,22.24
2023-05-06T09:58:26.898Z,20.08
2023-05-06T09:59:27.082Z,20.08
2023-05-06T10:00:27.168Z,20
2023-05-06T10:01:35.845Z,19.2
2023-05-06T10:02:27.504Z,18.8
2023-05-06T10:03:27.692Z,19.12
2023-05-06T10:04:27.777Z,18.72
2023-05-06T10:05:27.911Z,18.24
2023-05-06T10:06:27.913Z,18.24
2023-05-06T10:07:28.012Z,18.08
2023-05-06T10:08:28.164Z,17.92
2023-05-06T10:09:28.272Z,17.76
2023-05-06T10:10:28.368Z,18
2023-05-06T10:11:28.468Z,17.68
2023-05-06T10:12:28.628Z,17.6
2023-05-06T10:13:28.728Z,17.92
2023-05-06T10:14:28.876Z,19.2
2023-05-06T10:15:29.030Z,21.52
2023-05-06T10:16:29.203Z,20.88
2023-05-06T10:17:29.332Z,21.6
2023-05-06T10:18:29.383Z,23.04
2023-05-06T10:19:29.535Z,23.12
2023-05-06T10:20:29.698Z,23.92
2023-05-06T10:21:29.787Z,24.64
2023-05-06T10:22:29.937Z,24.88
2023-05-06T10:23:30.104Z,24.32
2023-05-06T10:24:30.251Z,24.4
2023-05-06T10:25:30.348Z,24.64
2023-05-06T10:26:30.500Z,25.44
2023-05-06T10:27:30.648Z,26.64
2023-05-06T10:28:31.673Z,26.32
2023-05-06T10:29:30.853Z,26.8
2023-05-06T10:30:30.949Z,25.92
2023-05-06T10:31:31.056Z,24.64
2023-05-06T10:32:31.232Z,22.24
2023-05-06T10:33:31.304Z,22.32
2023-05-06T10:34:31.403Z,21.92
2023-05-06T10:35:31.517Z,21.6
2023-05-06T10:36:31.604Z,20.88
2023-05-06T10:37:31.761Z,20.32
2023-05-06T10:38:31.925Z,20.08
2023-05-06T10:39:32.066Z,19.6
2023-05-06T10:40:32.161Z,19.6
2023-05-06T10:41:32.315Z,18.64
2023-05-06T10:42:32.464Z,18.32
2023-05-06T10:43:32.568Z,19.52
2023-05-06T10:44:32.670Z,20.72
2023-05-06T10:45:32.837Z,20.8
2023-05-06T10:46:32.973Z,22.4
2023-05-06T10:47:33.073Z,22.88
2023-05-06T10:48:33.224Z,22.64
2023-05-06T10:49:33.387Z,21.2
2023-05-06T10:50:33.496Z,20.32
2023-05-06T10:51:33.654Z,19.92
2023-05-06T10:52:33.781Z,20.64
2023-05-06T10:53:33.880Z,20.48
2023-05-06T10:54:34.038Z,20.88
2023-05-06T10:55:34.139Z,19.92
2023-05-06T10:56:34.244Z,20.72
2023-05-06T10:57:34.391Z,21.6
2023-05-06T10:58:34.492Z,21.52
2023-05-06T10:59:34.642Z,20.88
2023-05-06T11:00:34.793Z,20.4
2023-05-06T11:01:35.032Z,19.68
2023-05-06T11:02:35.056Z,18.88
2023-05-06T11:03:35.142Z,18.88
2023-05-06T11:04:35.204Z,18.8
2023-05-06T11:05:35.356Z,18.48
2023-05-06T11:06:35.464Z,18.72
2023-05-06T11:07:35.555Z,18.24
2023-05-06T11:08:35.656Z,18.48
2023-05-06T11:09:35.811Z,19.12
2023-05-06T11:10:35.959Z,19.6
2023-05-06T11:11:36.114Z,19.52
2023-05-06T11:12:36.259Z,20
2023-05-06T11:13:36.320Z,20.24
2023-05-06T11:14:36.420Z,20.4
2023-05-06T11:15:36.811Z,20.64
2023-05-06T11:16:38.185Z,20.72
2023-05-06T11:17:36.789Z,20.4
2023-05-06T11:18:36.934Z,20.8
2023-05-06T11:19:37.110Z,21.2
2023-05-06T11:20:37.177Z,20.8
2023-05-06T11:21:37.328Z,19.68
2023-05-06T11:22:37.433Z,20.32
2023-05-06T11:23:37.586Z,21.2
2023-05-06T11:24:37.692Z,22.24
2023-05-06T11:25:37.789Z,23.12
2023-05-06T11:26:37.943Z,23.44
2023-05-06T11:27:38.090Z,23.52
2023-05-06T11:28:38.194Z,22.88
2023-05-06T11:29:38.352Z,23.12
2023-05-06T11:30:38.485Z,22.48
2023-05-06T11:31:38.619Z,21.12
2023-05-06T11:32:38.723Z,21.12
2023-05-06T11:33:38.803Z,22.32
2023-05-06T11:34:38.902Z,23.92
2023-05-06T11:35:39.017Z,24.08
2023-05-06T11:36:39.154Z,24.4
2023-05-06T11:37:39.325Z,25.12
2023-05-06T11:38:39.417Z,24
2023-05-06T11:39:40.993Z,22.88
2023-05-06T11:40:39.666Z,23.44
2023-05-06T11:41:39.767Z,23.2
2023-05-06T11:42:39.922Z,23.2
2023-05-06T11:43:40.071Z,22.64
2023-05-06T11:44:40.174Z,21.68
2023-05-06T11:45:40.276Z,21.6
2023-05-06T11:46:40.395Z,23.2
2023-05-06T11:47:40.490Z,23.28
2023-05-06T11:48:40.590Z,21.84
2023-05-06T11:49:40.755Z,20.48
2023-05-06T11:50:40.835Z,20.8
2023-05-06T11:51:40.934Z,19.52
2023-05-06T11:52:41.039Z,20.8
2023-05-06T11:53:41.191Z,22.08
2023-05-06T11:54:41.313Z,23.2
2023-05-06T11:55:41.441Z,22.4
2023-05-06T11:56:41.596Z,21.04
2023-05-06T11:57:41.698Z,20.64
2023-05-06T11:58:41.800Z,20.64
2023-05-06T11:59:41.900Z,21.04
2023-05-06T12:00:42.047Z,22.32
2023-05-06T12:01:42.150Z,22.8
2023-05-06T12:02:42.367Z,22.48
2023-05-06T12:03:42.485Z,22.48
2023-05-06T12:04:42.591Z,21.28
2023-05-06T12:05:42.654Z,21.04
2023-05-06T12:06:42.772Z,20.4
2023-05-06T12:07:42.915Z,20.8
2023-05-06T12:08:43.026Z,21.04
2023-05-06T12:09:43.110Z,20.4
2023-05-06T12:10:43.215Z,21.2
2023-05-06T12:11:44.923Z,21.84
2023-05-06T12:12:43.442Z,21.92
2023-05-06T12:13:43.586Z,22.08
2023-05-06T12:14:43.670Z,22.4
2023-05-06T12:15:43.822Z,23.44
2023-05-06T12:16:44.058Z,23.6
2023-05-06T12:17:44.158Z,23.6
2023-05-06T12:18:44.226Z,22.72
2023-05-06T12:19:44.330Z,22.88
2023-05-06T12:20:44.499Z,22.64
2023-05-06T12:21:44.634Z,23.04
2023-05-06T12:22:44.796Z,24.64
2023-05-06T12:23:44.908Z,24.24
2023-05-06T12:24:44.988Z,25.04
2023-05-06T12:25:45.138Z,23.92
2023-05-06T12:26:45.239Z,24.08
2023-05-06T12:27:45.389Z,25.2
2023-05-06T12:28:45.492Z,25.04
2023-05-06T12:29:45.595Z,26.32
2023-05-06T12:30:45.752Z,26.4
2023-05-06T12:31:45.907Z,26.64
2023-05-06T12:32:45.984Z,25.04
2023-05-06T12:33:46.072Z,24.8
2023-05-06T12:34:46.208Z,23.68
2023-05-06T12:35:46.313Z,23.04
2023-05-06T12:36:46.410Z,22.64
2023-05-06T12:37:46.563Z,21.44
2023-05-06T12:38:46.673Z,21.44
2023-05-06T12:39:46.765Z,20.48
2023-05-06T12:40:46.868Z,20.32